createdAt,value
2022-07-28T00:00:08.711Z,40.28
2022-07-28T00:01:08.635Z,38.87
2022-07-28T00:02:08.716Z,44.27
2022-07-28T00:03:08.671Z,42.66
2022-07-28T00:04:08.614Z,42.34
2022-07-28T00:05:08.609Z,41.55
2022-07-28T00:06:08.598Z,49.28
2022-07-28T00:07:08.619Z,45.56
2022-07-28T00:08:08.580Z,48.08
2022-07-28T00:09:08.585Z,48.17
2022-07-28T00:10:08.568Z,43.95
2022-07-28T00:11:08.551Z,45.28
2022-07-28T00:12:08.579Z,45.20
2022-07-28T00:13:08.542Z,51.58
2022-07-28T00:14:08.540Z,50.23
2022-07-28T00:15:08.526Z,50.68
2022-07-28T00:16:08.538Z,47.00
2022-07-28T00:17:08.534Z,47.17
2022-07-28T00:18:08.501Z,50.28
2022-07-28T00:19:08.499Z,44.93
2022-07-28T00:20:08.489Z,43.85
2022-07-28T00:21:08.475Z,42.78
2022-07-28T00:22:08.502Z,47.75
2022-07-28T00:23:08.464Z,43.51
2022-07-28T00:24:08.456Z,42.32
2022-07-28T00:25:08.445Z,41.07
2022-07-28T00:26:08.447Z,45.50
2022-07-28T00:27:08.459Z,39.45
2022-07-28T00:28:08.427Z,47.28
2022-07-28T00:29:08.424Z,41.44
2022-07-28T00:30:08.414Z,41.27
2022-07-28T00:31:09.857Z,39.45
2022-07-28T00:32:08.494Z,56.60
2022-07-28T00:33:08.392Z,51.14
2022-07-28T00:34:08.378Z,45.55
2022-07-28T00:35:08.839Z,47.60
2022-07-28T00:36:10.302Z,43.17
2022-07-28T00:37:08.384Z,39.56
2022-07-28T00:38:09.348Z,44.32
2022-07-28T00:39:08.343Z,40.52
2022-07-28T00:40:08.337Z,48.31
2022-07-28T00:41:08.326Z,44.25
2022-07-28T00:42:08.346Z,43.90
2022-07-28T00:43:08.312Z,50.00
2022-07-28T00:44:08.305Z,49.23
2022-07-28T00:45:08.294Z,49.29
2022-07-28T00:46:08.415Z,42.90
2022-07-28T00:47:08.284Z,42.86
2022-07-28T00:48:08.309Z,46.90
2022-07-28T00:49:08.331Z,47.07
2022-07-28T00:50:08.257Z,56.23
2022-07-28T00:51:08.248Z,52.79
2022-07-28T00:52:08.241Z,47.63
2022-07-28T00:53:08.785Z,41.30
2022-07-28T00:54:08.230Z,49.30
2022-07-28T00:55:08.222Z,56.05
2022-07-28T00:56:08.211Z,46.19
2022-07-28T00:57:08.203Z,40.32
2022-07-28T00:58:08.218Z,46.14
2022-07-28T00:59:08.186Z,51.75
2022-07-28T01:00:08.182Z,40.33
2022-07-28T01:01:08.176Z,41.21
2022-07-28T01:02:08.309Z,50.01
2022-07-28T01:03:08.215Z,50.11
2022-07-28T01:04:08.154Z,56.16
2022-07-28T01:05:08.146Z,43.57
2022-07-28T01:06:08.133Z,39.39
2022-07-28T01:07:08.130Z,48.69
2022-07-28T01:08:08.145Z,48.87
2022-07-28T01:09:08.104Z,47.90
2022-07-28T01:10:08.102Z,41.10
2022-07-28T01:11:08.101Z,46.02
2022-07-28T01:12:08.089Z,37.81
2022-07-28T01:13:08.102Z,41.13
2022-07-28T01:14:08.077Z,49.02
2022-07-28T01:15:08.068Z,47.74
2022-07-28T01:16:08.073Z,46.62
2022-07-28T01:17:08.050Z,45.44
2022-07-28T01:18:39.978Z,40.13
2022-07-28T01:19:08.035Z,39.43
2022-07-28T01:20:08.038Z,41.70
2022-07-28T01:21:08.036Z,41.49
2022-07-28T01:22:08.059Z,48.03
2022-07-28T01:23:08.033Z,54.06
2022-07-28T01:24:07.998Z,46.71
2022-07-28T01:25:07.991Z,51.08
2022-07-28T01:26:07.985Z,54.19
2022-07-28T01:27:07.986Z,48.15
2022-07-28T01:28:07.996Z,44.87
2022-07-28T01:29:07.963Z,45.47
2022-07-28T01:30:07.959Z,48.46
2022-07-28T01:31:08.001Z,56.80
2022-07-28T01:32:07.931Z,45.88
2022-07-28T01:33:07.955Z,46.54
2022-07-28T01:34:07.924Z,44.25
2022-07-28T01:35:07.921Z,42.26
2022-07-28T01:36:07.908Z,42.99
2022-07-28T01:37:07.898Z,48.44
2022-07-28T01:38:07.918Z,45.25
2022-07-28T01:39:07.883Z,40.21
2022-07-28T01:40:07.876Z,42.15
2022-07-28T01:41:07.868Z,43.46
2022-07-28T01:42:07.860Z,45.31
2022-07-28T01:43:08.473Z,56.95
2022-07-28T01:44:07.843Z,50.28
2022-07-28T01:45:07.848Z,57.08
2022-07-28T01:46:07.850Z,37.04
2022-07-28T01:47:07.824Z,34.32
2022-07-28T01:48:07.844Z,39.07
2022-07-28T01:49:07.875Z,42.76
2022-07-28T01:50:07.803Z,46.42
2022-07-28T01:51:07.790Z,47.75
2022-07-28T01:52:07.780Z,44.45
2022-07-28T01:53:07.805Z,34.12
2022-07-28T01:54:07.765Z,34.40
2022-07-28T01:55:07.784Z,36.36
2022-07-28T01:56:07.752Z,52.84
2022-07-28T01:57:07.749Z,49.59
2022-07-28T01:58:07.770Z,48.38
2022-07-28T01:59:07.757Z,44.69
2022-07-28T02:00:07.726Z,46.51
2022-07-28T02:01:07.803Z,57.80
2022-07-28T02:02:07.816Z,50.19
2022-07-28T02:03:07.747Z,46.08
2022-07-28T02:04:07.691Z,40.10
2022-07-28T02:05:07.746Z,43.24
2022-07-28T02:06:07.684Z,51.26
2022-07-28T02:07:07.679Z,39.43
2022-07-28T02:08:07.697Z,43.94
2022-07-28T02:09:07.663Z,56.87
2022-07-28T02:10:07.660Z,50.40
2022-07-28T02:11:09.938Z,45.95
2022-07-28T02:12:07.639Z,44.19
2022-07-28T02:13:07.640Z,46.37
2022-07-28T02:14:07.648Z,44.98
2022-07-28T02:15:07.625Z,49.29
2022-07-28T02:16:07.717Z,52.49
2022-07-28T02:17:07.597Z,51.20
2022-07-28T02:18:07.587Z,52.55
2022-07-28T02:19:07.609Z,51.15
2022-07-28T02:20:07.577Z,48.27
2022-07-28T02:21:07.574Z,50.25
2022-07-28T02:22:07.572Z,50.01
2022-07-28T02:23:07.556Z,45.43
2022-07-28T02:24:07.582Z,47.70
2022-07-28T02:25:07.545Z,49.96
2022-07-28T02:26:07.537Z,47.04
2022-07-28T02:27:07.521Z,48.91
2022-07-28T02:28:07.518Z,46.95
2022-07-28T02:29:07.534Z,46.26
2022-07-28T02:30:07.504Z,38.51
2022-07-28T02:31:07.567Z,47.64
2022-07-28T02:32:27.248Z,49.52
2022-07-28T02:33:08.486Z,49.25
2022-07-28T02:34:07.728Z,59.01
2022-07-28T02:35:08.796Z,48.37
2022-07-28T02:36:07.458Z,48.07
2022-07-28T02:37:07.448Z,45.10
2022-07-28T02:38:07.450Z,56.17
2022-07-28T02:39:07.472Z,51.00
2022-07-28T02:40:07.443Z,49.70
2022-07-28T02:41:07.419Z,47.94
2022-07-28T02:42:07.412Z,47.62
2022-07-28T02:43:07.424Z,41.79
2022-07-28T02:44:07.419Z,49.14
2022-07-28T02:45:07.388Z,46.96
2022-07-28T02:46:07.420Z,50.02
2022-07-28T02:47:07.372Z,42.55
2022-07-28T02:48:07.363Z,50.66
2022-07-28T02:49:07.489Z,53.99
2022-07-28T02:50:07.351Z,44.01
2022-07-28T02:51:07.335Z,50.09
2022-07-28T02:52:07.332Z,48.09
2022-07-28T02:53:15.005Z,49.14
2022-07-28T02:54:08.346Z,46.61
2022-07-28T02:55:07.313Z,47.29
2022-07-28T02:56:07.295Z,45.84
2022-07-28T02:57:07.285Z,50.50
2022-07-28T02:58:07.287Z,49.12
2022-07-28T02:59:07.300Z,47.37
2022-07-28T03:00:07.274Z,50.05
2022-07-28T03:01:07.343Z,54.20
2022-07-28T03:02:07.259Z,56.63
2022-07-28T03:03:07.241Z,52.28
2022-07-28T03:04:07.303Z,50.99
2022-07-28T03:05:08.682Z,47.67
2022-07-28T03:06:07.215Z,47.57
2022-07-28T03:07:07.217Z,44.43
2022-07-28T03:08:07.213Z,42.84
2022-07-28T03:09:07.224Z,42.89
2022-07-28T03:10:07.193Z,50.83
2022-07-28T03:11:07.183Z,50.93
2022-07-28T03:12:07.178Z,52.01
2022-07-28T03:13:07.256Z,57.51
2022-07-28T03:14:07.190Z,53.60
2022-07-28T03:15:07.154Z,56.87
2022-07-28T03:16:07.147Z,52.15
2022-07-28T03:17:07.213Z,51.38
2022-07-28T03:18:07.135Z,53.17
2022-07-28T03:19:07.159Z,59.64
2022-07-28T03:20:07.123Z,53.08
2022-07-28T03:21:07.107Z,57.23
2022-07-28T03:22:10.449Z,54.74
2022-07-28T03:23:07.093Z,54.31
2022-07-28T03:24:07.084Z,53.40
2022-07-28T03:25:07.095Z,51.58
2022-07-28T03:26:07.069Z,52.96
2022-07-28T03:27:07.063Z,55.12
2022-07-28T03:28:07.055Z,52.98
2022-07-28T03:29:07.048Z,54.53
2022-07-28T03:30:07.072Z,52.85
2022-07-28T03:31:07.092Z,54.17
2022-07-28T03:32:07.026Z,53.01
2022-07-28T03:33:07.022Z,50.40
2022-07-28T03:34:07.010Z,55.12
2022-07-28T03:35:07.034Z,53.86
2022-07-28T03:36:07.000Z,58.32
2022-07-28T03:37:06.989Z,55.49
2022-07-28T03:38:06.981Z,51.89
2022-07-28T03:39:06.967Z,56.18
2022-07-28T03:40:06.994Z,52.12
2022-07-28T03:41:06.957Z,59.95
2022-07-28T03:42:06.951Z,57.10
2022-07-28T03:43:06.946Z,57.01
2022-07-28T03:44:06.946Z,54.78
2022-07-28T03:45:06.955Z,54.91
2022-07-28T03:46:12.701Z,53.23
2022-07-28T03:47:08.910Z,60.50
2022-07-28T03:48:06.900Z,54.47
2022-07-28T03:49:06.982Z,56.74
2022-07-28T03:50:06.913Z,54.64
2022-07-28T03:51:06.883Z,53.52
2022-07-28T03:52:06.866Z,55.93
2022-07-28T03:53:06.862Z,53.52
2022-07-28T03:54:06.861Z,56.27
2022-07-28T03:55:06.871Z,53.39
2022-07-28T03:56:06.841Z,54.71
2022-07-28T03:57:06.836Z,55.18
2022-07-28T03:58:06.826Z,51.05
2022-07-28T03:59:06.822Z,54.55
2022-07-28T04:00:09.702Z,51.58
2022-07-28T04:01:08.690Z,53.70
2022-07-28T04:02:06.814Z,57.63
2022-07-28T04:03:35.061Z,55.93
2022-07-28T04:04:07.782Z,56.12
2022-07-28T04:05:06.802Z,53.21
2022-07-28T04:06:06.752Z,52.33
2022-07-28T04:07:07.758Z,56.87
2022-07-28T04:08:06.745Z,57.01
2022-07-28T04:09:06.759Z,55.81
2022-07-28T04:10:06.771Z,55.25
2022-07-28T04:11:06.732Z,53.11
2022-07-28T04:12:06.716Z,55.03
2022-07-28T04:13:06.714Z,53.81
2022-07-28T04:14:06.712Z,55.39
2022-07-28T04:15:06.720Z,56.64
2022-07-28T04:16:06.687Z,52.47
2022-07-28T04:17:06.724Z,56.51
2022-07-28T04:18:06.669Z,55.41
2022-07-28T04:19:06.666Z,56.68
2022-07-28T04:20:06.683Z,54.39
2022-07-28T04:21:06.646Z,60.09
2022-07-28T04:22:06.645Z,59.32
2022-07-28T04:23:06.641Z,55.41
2022-07-28T04:24:06.636Z,56.41
2022-07-28T04:25:06.656Z,55.01
2022-07-28T04:26:06.619Z,57.11
2022-07-28T04:27:06.607Z,56.49
2022-07-28T04:28:06.598Z,54.94
2022-07-28T04:29:06.594Z,55.44
2022-07-28T04:30:06.614Z,57.06
2022-07-28T04:31:06.627Z,57.64
2022-07-28T04:32:06.568Z,57.22
2022-07-28T04:33:06.564Z,60.71
2022-07-28T04:34:06.592Z,55.18
2022-07-28T04:35:06.576Z,53.37
2022-07-28T04:36:06.535Z,57.70
2022-07-28T04:37:06.531Z,56.63
2022-07-28T04:38:06.523Z,55.91
2022-07-28T04:39:06.512Z,57.47
2022-07-28T04:40:06.511Z,57.16
2022-07-28T04:41:06.527Z,55.09
2022-07-28T04:42:06.507Z,56.93
2022-07-28T04:43:06.486Z,55.64
2022-07-28T04:44:06.481Z,56.86
2022-07-28T04:45:06.467Z,56.54
2022-07-28T04:46:06.526Z,57.20
2022-07-28T04:47:06.574Z,61.24
2022-07-28T04:48:06.444Z,57.60
2022-07-28T04:49:06.631Z,56.96
2022-07-28T04:50:06.429Z,54.88
2022-07-28T04:51:06.444Z,56.60
2022-07-28T04:52:06.417Z,56.25
2022-07-28T04:53:06.403Z,55.57
2022-07-28T04:54:06.401Z,62.00
2022-07-28T04:55:06.391Z,56.75
2022-07-28T04:56:06.409Z,59.34
2022-07-28T04:57:10.393Z,54.95
2022-07-28T04:58:07.364Z,52.41
2022-07-28T04:59:06.362Z,57.33
2022-07-28T05:00:06.354Z,58.71
2022-07-28T05:01:06.448Z,60.80
2022-07-28T05:02:06.342Z,54.04
2022-07-28T05:03:06.329Z,53.52
2022-07-28T05:04:06.380Z,56.91
2022-07-28T05:05:06.357Z,55.87
2022-07-28T05:06:06.332Z,56.47
2022-07-28T05:07:11.949Z,56.86
2022-07-28T05:08:07.293Z,55.88
2022-07-28T05:09:06.290Z,53.70
2022-07-28T05:10:06.274Z,59.89
2022-07-28T05:11:06.308Z,53.52
2022-07-28T05:12:06.271Z,56.06
2022-07-28T05:13:06.259Z,56.10
2022-07-28T05:14:06.253Z,53.86
2022-07-28T05:15:06.239Z,56.16
2022-07-28T05:16:06.302Z,56.47
2022-07-28T05:17:06.236Z,53.98
2022-07-28T05:18:06.241Z,53.68
2022-07-28T05:19:06.214Z,55.26
2022-07-28T05:20:06.229Z,56.89
2022-07-28T05:21:06.214Z,58.07
2022-07-28T05:22:07.186Z,54.63
2022-07-28T05:23:06.177Z,55.70
2022-07-28T05:24:06.168Z,56.77
2022-07-28T05:25:06.164Z,56.75
2022-07-28T05:26:06.186Z,56.24
2022-07-28T05:27:06.145Z,57.53
2022-07-28T05:28:06.174Z,58.51
2022-07-28T05:29:06.135Z,56.98
2022-07-28T05:30:06.125Z,56.87
2022-07-28T05:31:06.146Z,55.55
2022-07-28T05:32:16.679Z,56.35
2022-07-28T05:33:08.102Z,56.05
2022-07-28T05:34:06.103Z,57.59
2022-07-28T05:35:06.091Z,60.97
2022-07-28T05:36:06.106Z,57.49
2022-07-28T05:37:06.074Z,55.29
2022-07-28T05:38:10.528Z,60.00
2022-07-28T05:39:08.074Z,55.08
2022-07-28T05:40:06.047Z,56.47
2022-07-28T05:41:06.065Z,53.58
2022-07-28T05:42:06.055Z,58.11
2022-07-28T05:43:06.032Z,54.81
2022-07-28T05:44:06.025Z,56.13
2022-07-28T05:45:16.748Z,55.44
2022-07-28T05:46:07.096Z,56.20
2022-07-28T05:47:06.044Z,53.30
2022-07-28T05:48:05.996Z,56.46
2022-07-28T05:49:06.035Z,53.31
2022-07-28T05:50:05.980Z,53.12
2022-07-28T05:51:05.994Z,54.34
2022-07-28T05:52:05.963Z,53.98
2022-07-28T05:53:05.950Z,54.35
2022-07-28T05:54:05.943Z,54.94
2022-07-28T05:55:05.935Z,51.45
2022-07-28T05:56:05.959Z,61.15
2022-07-28T05:57:05.913Z,53.80
2022-07-28T05:58:05.907Z,54.22
2022-07-28T05:59:05.901Z,51.50
2022-07-28T06:00:05.893Z,56.10
2022-07-28T06:01:05.971Z,56.55
2022-07-28T06:02:05.941Z,57.16
2022-07-28T06:03:05.873Z,60.20
2022-07-28T06:04:27.256Z,54.22
2022-07-28T06:05:07.859Z,56.82
2022-07-28T06:06:14.604Z,57.76
2022-07-28T06:07:06.839Z,57.05
2022-07-28T06:08:05.829Z,54.13
2022-07-28T06:09:05.830Z,57.77
2022-07-28T06:10:05.813Z,58.05
2022-07-28T06:11:05.845Z,56.62
2022-07-28T06:12:05.806Z,56.39
2022-07-28T06:13:05.802Z,59.07
2022-07-28T06:14:05.793Z,59.02
2022-07-28T06:15:05.777Z,55.06
2022-07-28T06:16:09.664Z,55.70
2022-07-28T06:17:07.890Z,58.10
2022-07-28T06:18:05.755Z,59.16
2022-07-28T06:19:05.749Z,61.31
2022-07-28T06:20:05.734Z,58.78
2022-07-28T06:21:05.783Z,58.38
2022-07-28T06:22:05.741Z,58.90
2022-07-28T06:23:05.742Z,59.78
2022-07-28T06:24:05.714Z,59.38
2022-07-28T06:25:05.709Z,57.35
2022-07-28T06:26:05.695Z,58.91
2022-07-28T06:27:06.664Z,54.24
2022-07-28T06:28:05.681Z,57.94
2022-07-28T06:29:05.678Z,59.23
2022-07-28T06:30:05.661Z,57.86
2022-07-28T06:31:05.708Z,58.57
2022-07-28T06:32:05.739Z,58.67
2022-07-28T06:33:05.666Z,57.78
2022-07-28T06:34:05.638Z,59.81
2022-07-28T06:35:05.633Z,57.78
2022-07-28T06:36:05.623Z,56.28
2022-07-28T06:37:05.660Z,53.54
2022-07-28T06:38:05.606Z,56.86
2022-07-28T06:39:05.608Z,55.87
2022-07-28T06:40:05.600Z,58.59
2022-07-28T06:41:05.586Z,59.57
2022-07-28T06:42:05.608Z,51.14
2022-07-28T06:43:05.572Z,56.16
2022-07-28T06:44:05.562Z,56.71
2022-07-28T06:45:05.555Z,57.21
2022-07-28T06:46:05.553Z,56.42
2022-07-28T06:47:05.646Z,57.00
2022-07-28T06:48:05.528Z,58.36
2022-07-28T06:49:05.597Z,60.68
2022-07-28T06:50:05.520Z,57.50
2022-07-28T06:51:06.533Z,56.75
2022-07-28T06:52:05.530Z,56.21
2022-07-28T06:53:05.501Z,60.06
2022-07-28T06:54:10.741Z,60.02
2022-07-28T06:55:07.481Z,56.28
2022-07-28T06:56:05.518Z,61.28
2022-07-28T06:57:05.491Z,59.23
2022-07-28T06:58:05.462Z,57.86
2022-07-28T06:59:05.448Z,53.74
2022-07-28T07:00:05.442Z,54.76
2022-07-28T07:01:05.486Z,56.02
2022-07-28T07:02:05.446Z,54.15
2022-07-28T07:03:09.602Z,59.36
2022-07-28T07:04:05.471Z,57.49
2022-07-28T07:05:05.415Z,56.04
2022-07-28T07:06:05.398Z,54.95
2022-07-28T07:07:14.737Z,58.12
2022-07-28T07:08:06.377Z,58.01
2022-07-28T07:09:05.368Z,57.93
2022-07-28T07:10:05.369Z,58.39
2022-07-28T07:11:05.365Z,60.28
2022-07-28T07:12:05.380Z,57.94
2022-07-28T07:13:05.351Z,56.30
2022-07-28T07:14:05.345Z,57.03
2022-07-28T07:15:05.332Z,55.79
2022-07-28T07:16:05.400Z,55.76
2022-07-28T07:17:05.346Z,60.80
2022-07-28T07:18:39.276Z,60.76
2022-07-28T07:19:06.866Z,57.78
2022-07-28T07:20:05.290Z,59.13
2022-07-28T07:21:05.281Z,54.88
2022-07-28T07:22:05.304Z,55.87
2022-07-28T07:23:05.272Z,56.41
2022-07-28T07:24:05.267Z,57.31
2022-07-28T07:25:05.258Z,58.03
2022-07-28T07:26:05.252Z,56.84
2022-07-28T07:27:05.269Z,56.70
2022-07-28T07:28:05.237Z,55.40
2022-07-28T07:29:05.221Z,56.75
2022-07-28T07:30:05.221Z,53.99
2022-07-28T07:31:05.258Z,55.93
2022-07-28T07:32:10.366Z,60.38
2022-07-28T07:33:08.011Z,61.25
2022-07-28T07:34:05.194Z,55.46
2022-07-28T07:35:05.183Z,55.59
2022-07-28T07:36:05.179Z,58.61
2022-07-28T07:37:05.194Z,56.72
2022-07-28T07:38:05.170Z,56.93
2022-07-28T07:39:05.158Z,60.16
2022-07-28T07:40:05.143Z,56.49
2022-07-28T07:41:05.135Z,54.24
2022-07-28T07:42:05.156Z,56.28
2022-07-28T07:43:05.126Z,57.12
2022-07-28T07:44:05.112Z,58.96
2022-07-28T07:45:05.103Z,57.20
2022-07-28T07:46:05.144Z,53.73
2022-07-28T07:47:05.160Z,54.66
2022-07-28T07:48:05.079Z,60.37
2022-07-28T07:49:05.161Z,62.35
2022-07-28T07:50:05.069Z,55.00
2022-07-28T07:51:05.055Z,55.62
2022-07-28T07:52:05.079Z,57.25
2022-07-28T07:53:05.042Z,56.32
2022-07-28T07:54:05.041Z,54.22
2022-07-28T07:55:05.034Z,55.74
2022-07-28T07:56:05.017Z,57.38
2022-07-28T07:57:05.042Z,55.08
2022-07-28T07:58:05.007Z,56.98
2022-07-28T07:59:04.999Z,56.41
2022-07-28T08:00:04.996Z,53.88
2022-07-28T08:01:04.979Z,51.13
2022-07-28T08:02:05.062Z,56.84
2022-07-28T08:03:11.015Z,54.54
2022-07-28T08:04:05.981Z,55.40
2022-07-28T08:05:05.011Z,56.15
2022-07-28T08:06:04.946Z,53.32
2022-07-28T08:07:04.932Z,52.80
2022-07-28T08:08:05.098Z,57.00
2022-07-28T08:09:04.921Z,55.05
2022-07-28T08:10:04.911Z,56.96
2022-07-28T08:11:04.901Z,57.63
2022-07-28T08:12:04.899Z,55.70
2022-07-28T08:13:04.903Z,55.33
2022-07-28T08:14:05.881Z,54.20
2022-07-28T08:15:04.876Z,56.03
2022-07-28T08:16:04.911Z,57.59
2022-07-28T08:17:04.858Z,54.38
2022-07-28T08:18:04.873Z,55.16
2022-07-28T08:19:04.841Z,53.38
2022-07-28T08:20:04.831Z,61.58
2022-07-28T08:21:04.828Z,58.23
2022-07-28T08:22:04.816Z,53.03
2022-07-28T08:23:04.833Z,56.53
2022-07-28T08:24:04.804Z,58.87
2022-07-28T08:25:04.793Z,58.02
2022-07-28T08:26:04.789Z,56.48
2022-07-28T08:27:04.785Z,52.97
2022-07-28T08:28:04.798Z,55.76
2022-07-28T08:29:04.768Z,58.79
2022-07-28T08:30:04.777Z,54.32
2022-07-28T08:31:04.786Z,48.22
2022-07-28T08:32:04.743Z,56.34
2022-07-28T08:33:04.758Z,56.88
2022-07-28T08:34:04.730Z,56.46
2022-07-28T08:35:31.502Z,57.60
2022-07-28T08:36:06.707Z,55.71
2022-07-28T08:37:04.706Z,54.84
2022-07-28T08:38:04.721Z,58.87
2022-07-28T08:39:04.684Z,56.16
2022-07-28T08:40:04.675Z,55.75
2022-07-28T08:41:04.676Z,55.33
2022-07-28T08:42:04.670Z,58.95
2022-07-28T08:43:04.687Z,60.67
2022-07-28T08:44:04.651Z,58.81
2022-07-28T08:45:04.662Z,55.96
2022-07-28T08:46:04.733Z,56.61
2022-07-28T08:47:04.697Z,52.66
2022-07-28T08:48:09.095Z,58.11
2022-07-28T08:49:06.680Z,57.30
2022-07-28T08:50:04.605Z,58.44
2022-07-28T08:51:04.609Z,57.66
2022-07-28T08:52:04.586Z,55.76
2022-07-28T08:53:04.613Z,56.81
2022-07-28T08:54:04.579Z,57.06
2022-07-28T08:55:04.570Z,56.81
2022-07-28T08:56:04.561Z,54.29
2022-07-28T08:57:04.554Z,53.24
2022-07-28T08:58:04.579Z,59.54
2022-07-28T08:59:04.541Z,56.80
2022-07-28T09:00:04.529Z,55.66
2022-07-28T09:01:04.530Z,55.19
2022-07-28T09:02:04.545Z,52.94
2022-07-28T09:03:04.644Z,56.27
2022-07-28T09:04:04.503Z,55.60
2022-07-28T09:05:04.511Z,58.17
2022-07-28T09:06:04.503Z,58.27
2022-07-28T09:07:04.472Z,60.56
2022-07-28T09:08:04.493Z,54.06
2022-07-28T09:09:04.462Z,54.73
2022-07-28T09:10:04.459Z,55.90
2022-07-28T09:11:04.446Z,57.14
2022-07-28T09:12:04.441Z,53.56
2022-07-28T09:13:04.452Z,59.74
2022-07-28T09:14:04.414Z,58.12
2022-07-28T09:15:04.411Z,54.13
2022-07-28T09:16:04.457Z,57.74
2022-07-28T09:17:05.237Z,55.12
2022-07-28T09:18:04.418Z,56.11
2022-07-28T09:19:04.387Z,51.21
2022-07-28T09:20:10.403Z,60.10
2022-07-28T09:21:06.370Z,59.28
2022-07-28T09:22:04.360Z,54.99
2022-07-28T09:23:04.382Z,54.27
2022-07-28T09:24:04.345Z,56.06
2022-07-28T09:25:04.339Z,56.39
2022-07-28T09:26:09.967Z,53.27
2022-07-28T09:27:06.322Z,53.14
2022-07-28T09:28:04.313Z,60.18
2022-07-28T09:29:04.344Z,56.30
2022-07-28T09:30:04.304Z,53.74
2022-07-28T09:31:04.322Z,53.13
2022-07-28T09:32:04.344Z,54.16
2022-07-28T09:33:04.278Z,53.94
2022-07-28T09:34:04.298Z,55.52
2022-07-28T09:35:04.266Z,56.22
2022-07-28T09:36:04.263Z,54.94
2022-07-28T09:37:04.243Z,53.77
2022-07-28T09:38:04.244Z,54.14
2022-07-28T09:39:04.273Z,51.54
2022-07-28T09:40:04.311Z,54.89
2022-07-28T09:41:04.222Z,55.55
2022-07-28T09:42:04.215Z,55.97
2022-07-28T09:43:04.208Z,52.43
2022-07-28T09:44:04.226Z,53.91
2022-07-28T09:45:21.803Z,54.29
2022-07-28T09:46:06.349Z,56.09
2022-07-28T09:47:04.344Z,62.57
2022-07-28T09:48:04.292Z,56.17
2022-07-28T09:49:04.370Z,56.08
2022-07-28T09:50:04.198Z,55.63
2022-07-28T09:51:04.143Z,54.44
2022-07-28T09:52:04.152Z,56.80
2022-07-28T09:53:04.127Z,61.10
2022-07-28T09:54:04.138Z,55.33
2022-07-28T09:55:04.109Z,55.09
2022-07-28T09:56:04.103Z,58.68
2022-07-28T09:57:04.087Z,55.13
2022-07-28T09:58:04.084Z,53.76
2022-07-28T09:59:05.099Z,54.32
2022-07-28T10:00:04.068Z,58.46
2022-07-28T10:01:04.086Z,61.49
2022-07-28T10:02:04.099Z,58.18
2022-07-28T10:03:04.083Z,56.32
2022-07-28T10:04:04.089Z,55.39
2022-07-28T10:05:04.048Z,55.22
2022-07-28T10:06:04.022Z,53.69
2022-07-28T10:07:04.022Z,55.54
2022-07-28T10:08:04.012Z,56.92
2022-07-28T10:09:04.032Z,59.76
2022-07-28T10:10:03.987Z,55.70
2022-07-28T10:11:03.990Z,55.66
2022-07-28T10:12:03.968Z,55.30
2022-07-28T10:13:04.967Z,56.02
2022-07-28T10:14:03.984Z,55.23
2022-07-28T10:15:03.949Z,54.59
2022-07-28T10:16:03.967Z,51.28
2022-07-28T10:17:06.145Z,54.84
2022-07-28T10:18:04.929Z,54.43
2022-07-28T10:19:03.952Z,54.45
2022-07-28T10:20:03.918Z,53.70
2022-07-28T10:21:03.911Z,54.38
2022-07-28T10:22:03.901Z,52.85
2022-07-28T10:23:03.892Z,55.28
2022-07-28T10:24:03.916Z,56.54
2022-07-28T10:25:03.882Z,55.68
2022-07-28T10:26:03.874Z,58.12
2022-07-28T10:27:04.860Z,55.48
2022-07-28T10:28:03.859Z,56.26
2022-07-28T10:29:03.876Z,53.61
2022-07-28T10:30:03.838Z,56.76
2022-07-28T10:31:03.874Z,57.20
2022-07-28T10:32:03.826Z,53.95
2022-07-28T10:33:03.818Z,57.28
2022-07-28T10:34:03.813Z,53.26
2022-07-28T10:35:03.840Z,55.30
2022-07-28T10:36:03.793Z,56.34
2022-07-28T10:37:03.786Z,55.34
2022-07-28T10:38:03.783Z,54.46
2022-07-28T10:39:03.782Z,53.68
2022-07-28T10:40:09.382Z,58.62
2022-07-28T10:41:05.751Z,52.74
2022-07-28T10:42:03.754Z,54.38
2022-07-28T10:43:03.735Z,52.06
2022-07-28T10:44:03.728Z,56.45
2022-07-28T10:45:03.750Z,55.49
2022-07-28T10:46:06.014Z,53.17
2022-07-28T10:47:04.748Z,55.88
2022-07-28T10:48:03.700Z,55.25
2022-07-28T10:49:03.917Z,55.92
2022-07-28T10:50:03.712Z,58.55
2022-07-28T10:51:03.678Z,55.98
2022-07-28T10:52:08.653Z,56.90
2022-07-28T10:53:04.661Z,55.34
2022-07-28T10:54:03.659Z,56.74
2022-07-28T10:55:03.678Z,53.16
2022-07-28T10:56:03.641Z,49.60
2022-07-28T10:57:04.853Z,55.29
2022-07-28T10:58:11.727Z,53.65
2022-07-28T10:59:05.038Z,54.64
2022-07-28T11:00:12.764Z,55.71
2022-07-28T11:01:06.616Z,50.43
2022-07-28T11:02:04.693Z,53.74
2022-07-28T11:03:13.333Z,52.51
2022-07-28T11:04:04.582Z,56.25
2022-07-28T11:05:03.602Z,51.56
2022-07-28T11:06:03.563Z,47.79
2022-07-28T11:07:03.558Z,53.65
2022-07-28T11:08:03.554Z,56.67
2022-07-28T11:09:03.540Z,53.81
2022-07-28T11:10:03.561Z,57.47
2022-07-28T11:11:08.744Z,53.66
2022-07-28T11:12:04.519Z,52.08
2022-07-28T11:13:04.084Z,53.19
2022-07-28T11:14:03.504Z,52.72
2022-07-28T11:15:18.360Z,54.82
2022-07-28T11:16:04.491Z,52.31
2022-07-28T11:17:03.548Z,54.61
2022-07-28T11:18:03.479Z,54.53
2022-07-28T11:19:04.780Z,57.04
2022-07-28T11:20:30.542Z,59.13
2022-07-28T11:21:05.459Z,52.82
2022-07-28T11:22:03.456Z,54.85
2022-07-28T11:23:03.446Z,57.61
2022-07-28T11:24:03.439Z,55.88
2022-07-28T11:25:18.928Z,60.07
2022-07-28T11:26:04.447Z,55.79
2022-07-28T11:27:04.208Z,54.60
2022-07-28T11:28:04.417Z,49.83
2022-07-28T11:29:03.400Z,53.21
2022-07-28T11:30:03.398Z,55.20
2022-07-28T11:31:03.522Z,54.09
2022-07-28T11:32:03.381Z,54.28
2022-07-28T11:33:03.373Z,54.81
2022-07-28T11:34:03.364Z,52.60
2022-07-28T11:35:03.356Z,54.99
2022-07-28T11:36:03.380Z,53.74
2022-07-28T11:37:03.343Z,55.87
2022-07-28T11:38:03.642Z,55.96
2022-07-28T11:39:03.326Z,52.65
2022-07-28T11:40:03.321Z,57.71
2022-07-28T11:41:03.339Z,52.71
2022-07-28T11:42:03.313Z,54.18
2022-07-28T11:43:03.313Z,50.83
2022-07-28T11:44:03.292Z,53.81
2022-07-28T11:45:03.292Z,54.68
2022-07-28T11:46:03.343Z,53.59
2022-07-28T11:47:03.267Z,55.18
2022-07-28T11:48:03.268Z,56.36
2022-07-28T11:49:03.321Z,57.30
2022-07-28T11:50:03.246Z,56.00
2022-07-28T11:51:03.267Z,54.87
2022-07-28T11:52:03.230Z,51.41
2022-07-28T11:53:03.222Z,54.18
2022-07-28T11:54:03.220Z,53.92
2022-07-28T11:55:03.214Z,48.57
2022-07-28T11:56:03.403Z,53.81
2022-07-28T11:57:03.198Z,51.58
2022-07-28T11:58:03.185Z,59.92
2022-07-28T11:59:03.196Z,57.26
2022-07-28T12:00:03.175Z,56.73
2022-07-28T12:01:03.201Z,55.44
2022-07-28T12:02:03.282Z,53.30
2022-07-28T12:03:03.178Z,52.18
2022-07-28T12:04:03.145Z,58.49
2022-07-28T12:05:03.179Z,54.57
2022-07-28T12:06:03.154Z,56.40
2022-07-28T12:07:03.124Z,53.92
2022-07-28T12:08:03.137Z,53.56
2022-07-28T12:09:03.117Z,54.01
2022-07-28T12:10:03.117Z,53.35
2022-07-28T12:11:03.125Z,58.72
2022-07-28T12:12:03.092Z,55.38
2022-07-28T12:13:03.079Z,55.50
2022-07-28T12:14:03.093Z,55.70
2022-07-28T12:15:06.823Z,56.95
2022-07-28T12:16:04.102Z,56.94
2022-07-28T12:17:03.118Z,61.21
2022-07-28T12:18:03.042Z,55.05
2022-07-28T12:19:03.033Z,56.78
2022-07-28T12:20:03.035Z,57.16
2022-07-28T12:21:05.245Z,56.70
2022-07-28T12:22:04.015Z,58.11
2022-07-28T12:23:03.011Z,58.01
2022-07-28T12:24:03.000Z,57.07
2022-07-28T12:25:02.996Z,57.02
2022-07-28T12:26:02.987Z,56.77
2022-07-28T12:27:03.001Z,57.20
2022-07-28T12:28:02.972Z,53.60
2022-07-28T12:29:02.965Z,57.02
2022-07-28T12:30:03.979Z,58.30
2022-07-28T12:31:02.954Z,53.27
2022-07-28T12:32:03.045Z,57.25
2022-07-28T12:33:02.934Z,57.08
2022-07-28T12:34:02.934Z,57.39
2022-07-28T12:35:02.918Z,57.12
2022-07-28T12:36:02.922Z,57.07
2022-07-28T12:37:02.931Z,55.35
2022-07-28T12:38:02.897Z,55.43
2022-07-28T12:39:02.883Z,59.14
2022-07-28T12:40:02.876Z,62.10
2022-07-28T12:41:02.876Z,59.50
2022-07-28T12:42:02.896Z,59.57
2022-07-28T12:43:02.853Z,61.53
2022-07-28T12:44:11.467Z,55.56
2022-07-28T12:45:03.843Z,55.31
2022-07-28T12:46:02.919Z,53.86
2022-07-28T12:47:02.855Z,55.73
2022-07-28T12:48:02.820Z,55.11
2022-07-28T12:49:02.885Z,55.94
2022-07-28T12:50:06.902Z,53.78
2022-07-28T12:51:03.803Z,56.30
2022-07-28T12:52:02.810Z,55.64